This is the latest recevied weather packets stored in our database for station/object GW1479. If no packets are shown the sender has not sent any weather packets the latest 10 day(s).
| Time | Temp. | Humidity | Pressure | Rain* | Wind** | Luminosity | Snow |
|---|---|---|---|---|---|---|---|
| 1777746280 | 12.22° C | 50% | 1013.8 hPa | 0 mm | - | - | - |
| 1777745574 | 12.78° C | 49% | 1014.2 hPa | 0 mm | - | - | - |
| 1777737984 | 11.11° C | 56% | 1015.2 hPa | 0 mm | - | - | - |
| 1777735839 | 10.56° C | 63% | 1015.5 hPa | 0 mm | - | - | - |
| 1777735453 | 10.56° C | 65% | 1015.2 hPa | 0 mm | - | - | - |
| 1777734042 | 10° C | 72% | 1015.5 hPa | 0 mm | - | - | - |
| 1777732610 | 9.44° C | 75% | 1015.2 hPa | 0 mm | - | - | - |
| 1777727567 | 8.33° C | 91% | 1015.5 hPa | 0 mm | - | - | - |
| 1777726834 | 7.22° C | 93% | 1015.9 hPa | 0 mm | - | - | - |
| 1777723604 | 5° C | 99% | 1015.9 hPa | 0 mm | - | - | - |
| 1777722891 | 4.44° C | 99% | 1015.9 hPa | 0 mm | - | - | - |
| 1777722152 | 3.33° C | 99% | 1015.9 hPa | 0 mm | - | - | - |
| 1777717127 | 1.11° C | 99% | 1016.2 hPa | 0 mm | - | - | - |
| 1777716391 | 1.11° C | 99% | 1016.2 hPa | 0 mm | - | - | - |
| 1777705944 | 2.78° C | 99% | 1015.9 hPa | 0 mm | - | - | - |
| 1777701647 | 3.89° C | 97% | 1015.9 hPa | 0 mm | - | - | - |
| 1777701288 | 3.89° C | 97% | 1016.2 hPa | 0 mm | - | - | - |
| 1777699821 | 4.44° C | 98% | 1016.2 hPa | 0 mm | - | - | - |
| 1777698388 | 5° C | 98% | 1016.2 hPa | 0 mm | - | - | - |
| 1777695875 | 6.67° C | 95% | 1015.9 hPa | 0 mm | - | - | - |
| 1777691175 | 8.89° C | 86% | 1015.5 hPa | 0.25 mm | - | - | - |
| 1777681112 | 10.56° C | 92% | 1012.8 hPa | 0 mm | - | - | - |
| 1777680766 | 10.56° C | 92% | 1012.8 hPa | 0 mm | - | - | - |
| 1777679693 | 11.11° C | 91% | 1012.5 hPa | 0 mm | - | - | - |
| 1777678973 | 11.11° C | 89% | 1012.1 hPa | 0 mm | - | - | - |
* Rain since midnight (hover to see other rain measurements)
** Current wind speed in m/s (hover to see current wind gust speed)